Lambertville, New Jersey
Current Conditions -  °F | °C
As of 6:53 PM on Thursday 18 Dec 2014 (Local Time) from KTTN Reporting Station
Broken Clouds Broken Clouds  
Wind Chill: -1°   Ceiling: 3300
Heat Index:   Visibility: 10mi
Dew Point: -4°   Wind: 8mph
Humidity: 62%   Direction: 290°WNW
Pressure: 30"   Gusts: NA
Location:  40.37°N, 74.94°W
Report Text: KTTN 182353Z 29007KT 10SM BKN033 02/M04 A3000 RMK AO2 SLP154 T00221044 10044 20022 50001
Loading
Personal Weather Stations






























Interactive Weather Map New forecast layout! Learn more

10-Day Weather Forecast

Advertisements
Track Severe Weather on mobile